Time;durP1;ratioP1;P1;durP2;ratioP2;P2;SDS_P1;SDS_P2;PMS_P1;PMS_P2;Temp;Humidity;BMP_temperature;BMP_pressure;BME280_temperature;BME280_humidity;BME280_pressure;Samples;Min_cycle;Max_cycle;Signal;HPM_P1;HPM_P2
2022/07/05 00:01:16;;;;;;;2.52;2.33;;;;;;;27.13;50.35;101579.61;1741934;81;21015;-54
2022/07/05 00:03:43;;;;;;;2.70;2.33;;;;;;;27.11;50.38;101581.55;1703705;84;21054;-51
2022/07/05 00:06:12;;;;;;;3.10;1.60;;;;;;;27.09;50.37;101576.81;1707688;84;20995;-48
2022/07/05 00:08:39;;;;;;;1.77;1.40;;;;;;;27.09;50.38;101577.29;1703083;84;21002;-50
2022/07/05 00:11:06;;;;;;;3.17;1.60;;;;;;;27.08;50.38;101580.44;1704350;84;21062;-50
2022/07/05 00:13:33;;;;;;;1.95;1.75;;;;;;;27.07;50.44;101585.43;1742134;81;21051;-49
2022/07/05 00:16:02;;;;;;;3.75;1.77;;;;;;;27.06;50.40;101583.71;1691253;84;21590;-54
2022/07/05 00:18:29;;;;;;;2.00;1.62;;;;;;;27.06;50.43;101585.05;1735562;81;21022;-48
2022/07/05 00:20:56;;;;;;;2.45;1.60;;;;;;;27.05;50.40;101588.70;1741911;81;21097;-51
2022/07/05 00:23:23;;;;;;;2.02;1.67;;;;;;;27.06;50.42;101589.05;1702299;84;21053;-50
2022/07/05 00:25:49;;;;;;;3.12;1.50;;;;;;;27.05;50.43;101586.52;1702354;84;21498;-52
2022/07/05 00:28:18;;;;;;;2.80;1.72;;;;;;;27.05;50.36;101586.52;1703044;84;21042;-51
2022/07/05 00:30:45;;;;;;;2.20;1.95;;;;;;;27.05;50.38;101587.84;1704137;84;21065;-49
2022/07/05 00:33:11;;;;;;;2.08;1.87;;;;;;;27.03;50.37;101583.97;1741880;81;21479;-53
2022/07/05 00:35:38;;;;;;;3.33;1.80;;;;;;;27.01;50.42;101583.23;1740349;81;21031;-50
2022/07/05 00:38:05;;;;;;;2.08;1.50;;;;;;;26.99;50.43;101577.16;1738908;81;20984;-48
2022/07/05 00:40:33;;;;;;;2.08;1.80;;;;;;;26.97;50.52;101573.76;1700963;83;20995;-48
2022/07/05 00:43:00;;;;;;;1.70;1.60;;;;;;;26.93;50.55;101574.11;1698138;84;21070;-49
2022/07/05 00:45:27;;;;;;;2.12;1.40;;;;;;;26.90;50.69;101565.84;1693319;84;21034;-49
2022/07/05 00:47:54;;;;;;;4.10;1.90;;;;;;;26.86;50.74;101565.70;1736654;81;21515;-48
2022/07/05 00:50:21;;;;;;;2.02;1.70;;;;;;;26.84;50.77;101564.98;1699794;84;21009;-48
2022/07/05 00:52:50;;;;;;;2.80;1.60;;;;;;;26.83;50.72;101568.59;1698099;84;21071;-50
2022/07/05 00:55:17;;;;;;;4.55;1.80;;;;;;;26.81;50.78;101567.87;1690713;83;21096;-51
2022/07/05 00:57:43;;;;;;;1.92;1.57;;;;;;;26.82;50.84;101569.59;1700585;84;21514;-50
2022/07/05 01:00:12;;;;;;;3.02;1.57;;;;;;;26.81;50.80;101562.53;1701123;84;21475;-49
2022/07/05 01:02:38;;;;;;;6.25;1.70;;;;;;;26.81;50.71;101561.19;1691631;84;21482;-51
2022/07/05 01:05:07;;;;;;;1.60;1.50;;;;;;;26.80;50.67;101555.50;1698583;84;21037;-49
2022/07/05 01:07:34;;;;;;;2.70;1.80;;;;;;;26.80;50.65;101568.85;1700185;84;20998;-50
2022/07/05 01:10:01;;;;;;;2.80;1.65;;;;;;;26.80;50.62;101570.19;1701116;84;20998;-49
2022/07/05 01:12:28;;;;;;;1.92;1.62;;;;;;;26.80;50.69;101565.33;1736307;81;21050;-50
2022/07/05 01:14:55;;;;;;;3.42;1.80;;;;;;;26.80;50.67;101563.98;1733517;81;21070;-53
2022/07/05 01:17:22;;;;;;;3.22;1.65;;;;;;;26.79;50.70;101572.47;1703458;84;21069;-50
2022/07/05 01:19:50;;;;;;;1.50;1.40;;;;;;;26.79;50.81;101572.98;1737314;82;21010;-54
2022/07/05 01:22:19;;;;;;;2.77;1.72;;;;;;;26.79;50.78;101576.48;1736904;81;20979;-50
2022/07/05 01:24:47;;;;;;;2.20;1.50;;;;;;;26.82;50.70;101578.93;1734500;81;21275;-48
2022/07/05 01:27:14;;;;;;;2.15;1.62;;;;;;;26.82;50.67;101577.59;1733802;81;21452;-50
2022/07/05 01:29:42;;;;;;;2.05;1.75;;;;;;;26.81;50.48;101579.88;1733546;81;21011;-48
2022/07/05 01:32:09;;;;;;;2.08;1.70;;;;;;;26.81;50.37;101587.89;1734060;81;21026;-49
2022/07/05 01:34:38;;;;;;;1.60;1.50;;;;;;;26.80;50.33;101587.55;1733131;81;21078;-49
2022/07/05 01:37:06;;;;;;;1.70;1.60;;;;;;;26.79;50.30;101585.83;1734825;81;21034;-52
2022/07/05 01:39:33;;;;;;;3.22;1.77;;;;;;;26.77;50.41;101588.27;1701324;84;21058;-52
2022/07/05 01:42:00;;;;;;;3.60;1.60;;;;;;;26.74;50.49;101584.48;1701075;83;21078;-50
2022/07/05 01:44:27;;;;;;;2.27;1.60;;;;;;;26.71;50.56;101584.70;1704467;84;21082;-49
2022/07/05 01:46:58;;;;;;;2.00;1.60;;;;;;;26.68;50.71;101587.11;1700205;84;21532;-48
2022/07/05 01:49:25;;;;;;;1.77;1.60;;;;;;;26.65;50.76;101581.99;1736568;81;21011;-48
2022/07/05 01:51:55;;;;;;;1.25;1.20;;;;;;;26.64;50.84;101586.98;1736817;81;21074;-51
2022/07/05 01:54:22;;;;;;;3.17;1.70;;;;;;;26.64;50.86;101586.98;1727274;82;21094;-51
2022/07/05 01:56:49;;;;;;;3.17;1.70;;;;;;;26.63;50.88;101595.47;1718096;82;21567;-49
2022/07/05 01:59:15;;;;;;;2.30;1.75;;;;;;;26.63;50.93;101590.59;1724213;82;21107;-48
2022/07/05 02:01:42;;;;;;;2.55;2.33;;;;;;;26.63;50.93;101591.94;1723597;82;21527;-50
2022/07/05 02:04:10;;;;;;;1.72;1.62;;;;;;;26.61;50.95;101595.20;1725686;82;20967;-51
2022/07/05 02:06:39;;;;;;;4.13;1.37;;;;;;;26.62;50.93;101599.59;1727194;82;20991;-49
2022/07/05 02:09:07;;;;;;;2.72;1.60;;;;;;;26.60;50.81;101601.53;1727168;82;20984;-49
2022/07/05 02:11:35;;;;;;;3.08;1.57;;;;;;;26.56;50.51;101593.37;1724643;82;21082;-48
2022/07/05 02:14:03;;;;;;;2.10;1.90;;;;;;;26.59;50.78;101602.48;1725089;82;21128;-52
2022/07/05 02:16:32;;;;;;;3.55;1.57;;;;;;;26.57;51.09;101604.41;1724327;82;20987;-49
2022/07/05 02:18:59;;;;;;;4.20;1.47;;;;;;;26.54;51.01;101597.98;1721925;82;21090;-53
2022/07/05 02:21:26;;;;;;;2.75;2.17;;;;;;;26.51;51.06;101599.53;1721410;82;21047;-49
2022/07/05 02:23:55;;;;;;;3.45;1.47;;;;;;;26.49;51.24;101593.46;1722455;82;21035;-49
2022/07/05 02:26:23;;;;;;;1.98;1.75;;;;;;;26.49;51.24;101593.46;1729304;82;21560;-50
2022/07/05 02:28:50;;;;;;;3.85;1.42;;;;;;;26.46;51.29;101593.70;1724392;82;21059;-49
2022/07/05 02:31:19;;;;;;;1.45;1.35;;;;;;;26.46;51.29;101593.70;1723456;82;21118;-50
2022/07/05 02:33:47;;;;;;;1.72;1.60;;;;;;;26.45;51.45;101595.98;1724223;82;21038;-51
2022/07/05 02:36:15;;;;;;;2.05;1.85;;;;;;;26.43;51.52;101589.44;1724103;82;21039;-48
2022/07/05 02:38:43;;;;;;;3.17;1.60;;;;;;;26.42;51.67;101601.58;1726366;82;21306;-50
2022/07/05 02:41:11;;;;;;;2.67;1.80;;;;;;;26.42;51.67;101601.58;1724693;82;21038;-53
2022/07/05 02:43:39;;;;;;;3.33;1.82;;;;;;;26.41;51.56;101598.05;1725658;82;21079;-49
2022/07/05 02:46:07;;;;;;;1.60;1.47;;;;;;;26.40;51.60;101594.99;1721399;82;21098;-53
2022/07/05 02:48:35;;;;;;;1.98;1.77;;;;;;;26.41;51.57;101598.52;1730617;82;21077;-50
2022/07/05 02:51:03;;;;;;;5.37;1.70;;;;;;;26.41;51.57;101593.19;1728098;82;21047;-52
2022/07/05 02:53:30;;;;;;;2.10;1.50;;;;;;;26.40;51.58;101588.80;1733657;81;21031;-52
2022/07/05 02:55:58;;;;;;;2.02;1.60;;;;;;;26.40;51.67;101592.80;1733445;81;21487;-50
2022/07/05 02:58:25;;;;;;;2.20;1.80;;;;;;;26.40;51.74;101596.80;1733929;81;21026;-49
2022/07/05 03:00:53;;;;;;;2.25;1.67;;;;;;;26.40;51.75;101599.00;1735471;81;20995;-51
2022/07/05 03:03:20;;;;;;;2.20;1.55;;;;;;;26.43;51.76;101605.45;1701043;84;21026;-49
2022/07/05 03:05:49;;;;;;;1.65;1.55;;;;;;;26.44;51.74;101606.31;1736220;81;21058;-50
2022/07/05 03:08:17;;;;;;;2.45;1.57;;;;;;;26.46;51.59;101606.55;1740855;81;21011;-49
2022/07/05 03:10:44;;;;;;;3.45;1.70;;;;;;;26.47;51.81;101606.92;1735598;82;21038;-49
2022/07/05 03:13:12;;;;;;;1.75;1.65;;;;;;;26.49;51.82;101610.81;1736080;82;21051;-49
2022/07/05 03:15:39;;;;;;;2.17;1.70;;;;;;;26.51;51.90;101604.88;1736437;81;21559;-53
2022/07/05 03:18:06;;;;;;;2.52;1.87;;;;;;;26.53;51.84;101604.27;1699972;84;21050;-52
2022/07/05 03:20:33;;;;;;;1.92;1.82;;;;;;;26.55;51.95;101598.34;1698206;84;21038;-49
2022/07/05 03:23:02;;;;;;;1.82;1.45;;;;;;;26.58;52.08;101598.95;1698001;84;21025;-48
2022/07/05 03:25:30;;;;;;;2.08;1.37;;;;;;;26.61;52.28;101595.20;1732611;81;21027;-51
2022/07/05 03:27:58;;;;;;;2.90;1.50;;;;;;;26.63;52.25;101592.80;1689967;84;21030;-51
2022/07/05 03:30:26;;;;;;;1.60;1.50;;;;;;;26.65;52.32;101585.99;1698835;84;21534;-49
2022/07/05 03:32:54;;;;;;;2.27;1.70;;;;;;;26.70;52.16;101586.52;1694639;84;21022;-49
2022/07/05 03:35:22;;;;;;;2.25;1.72;;;;;;;26.71;51.99;101580.19;1736710;81;21495;-48
2022/07/05 03:37:50;;;;;;;3.65;1.98;;;;;;;26.78;52.00;101585.47;1735092;81;21003;-50
2022/07/05 03:40:18;;;;;;;3.67;1.40;;;;;;;26.80;51.95;101582.20;1733011;81;21078;-50
2022/07/05 03:42:45;;;;;;;1.92;1.55;;;;;;;26.88;52.23;101583.80;1699246;83;21074;-49
2022/07/05 03:45:12;;;;;;;1.65;1.52;;;;;;;27.02;52.01;101583.58;1697630;84;21018;-52
2022/07/05 03:47:39;;;;;;;2.77;1.60;;;;;;;27.24;51.74;101582.27;1727197;82;20979;-50
2022/07/05 03:50:09;;;;;;;2.90;1.50;;;;;;;27.62;51.43;101586.45;1698521;84;21030;-50
2022/07/05 03:52:36;;;;;;;3.37;1.70;;;;;;;28.21;50.62;101590.55;1697911;84;20983;-56
2022/07/05 03:55:06;;;;;;;3.17;1.60;;;;;;;28.92;49.15;101589.40;1699773;84;21026;-49
2022/07/05 03:57:34;;;;;;;1.40;1.30;;;;;;;29.71;47.59;101586.52;1733357;81;21027;-49
2022/07/05 04:00:02;;;;;;;2.55;1.45;;;;;;;30.53;45.78;101585.30;1732229;81;21027;-52
2022/07/05 04:02:31;;;;;;;4.65;1.70;;;;;;;31.30;44.16;101576.64;1735737;82;21062;-49
2022/07/05 04:04:59;;;;;;;2.95;1.75;;;;;;;31.99;42.37;101585.98;1701032;84;21026;-51
2022/07/05 04:07:25;;;;;;;2.60;1.40;;;;;;;32.47;40.82;101588.86;1736260;81;20995;-49
2022/07/05 04:09:53;;;;;;;3.80;1.80;;;;;;;32.70;40.00;101586.04;1733739;81;21058;-52
2022/07/05 04:12:20;;;;;;;2.87;1.62;;;;;;;32.72;39.68;101586.73;1725743;81;21019;-49
2022/07/05 04:14:47;;;;;;;2.25;1.50;;;;;;;32.58;39.85;101576.52;1697120;84;21042;-49
2022/07/05 04:17:15;;;;;;;2.40;1.47;;;;;;;32.35;40.21;101579.29;1736655;81;21027;-51
2022/07/05 04:19:43;;;;;;;1.87;1.50;;;;;;;32.06;40.75;101569.59;1700384;84;21070;-50
2022/07/05 04:22:10;;;;;;;2.08;1.40;;;;;;;31.78;41.15;101575.13;1698260;84;21034;-49
2022/07/05 04:27:23;;;;;;;2.87;1.80;;;;;;;31.24;42.05;101573.20;1698205;84;21061;-50
2022/07/05 04:29:50;;;;;;;1.70;1.30;;;;;;;30.95;42.44;101583.17;1698389;84;21022;-49
2022/07/05 04:32:17;;;;;;;1.40;1.30;;;;;;;30.72;42.88;101581.75;1698211;84;21073;-50
2022/07/05 04:34:44;;;;;;;2.45;1.90;;;;;;;30.50;43.35;101584.25;1698471;84;21054;-51
2022/07/05 04:37:11;;;;;;;2.92;1.50;;;;;;;30.30;43.86;101583.38;1696802;84;21058;-49
2022/07/05 04:39:38;;;;;;;3.65;1.62;;;;;;;30.12;44.48;101583.69;1727806;81;21514;-52
2022/07/05 04:42:07;;;;;;;2.47;1.45;;;;;;;29.97;45.11;101584.20;1698267;83;21522;-49
2022/07/05 04:44:35;;;;;;;2.67;1.52;;;;;;;29.82;45.70;101581.05;1698582;84;21014;-51
2022/07/05 04:47:02;;;;;;;6.45;1.75;;;;;;;29.68;46.09;101586.77;1673019;84;20987;-55
2022/07/05 04:49:30;;;;;;;2.98;1.62;;;;;;;29.57;46.45;101588.23;1736527;81;21050;-50
2022/07/05 04:51:57;;;;;;;4.10;3.20;;;;;;;29.47;46.94;101584.15;1699710;84;21507;-49
2022/07/05 04:54:25;;;;;;;4.28;3.27;;;;;;;29.40;47.41;101592.87;1698273;84;21057;-51
2022/07/05 04:56:51;;;;;;;3.55;3.17;;;;;;;29.35;47.60;101592.41;1735138;81;21038;-49
2022/07/05 04:59:18;;;;;;;3.62;3.10;;;;;;;29.30;47.88;101590.16;1733527;81;20972;-50
2022/07/05 05:01:45;;;;;;;4.58;2.95;;;;;;;29.29;48.20;101600.99;1733440;81;20984;-50
2022/07/05 05:04:12;;;;;;;4.90;3.17;;;;;;;29.28;48.44;101595.28;1733811;81;21027;-49
2022/07/05 05:06:39;;;;;;;4.53;3.05;;;;;;;29.28;48.44;101592.13;1733028;81;21070;-52
2022/07/05 05:09:07;;;;;;;2.55;2.20;;;;;;;29.33;48.60;101596.58;1735299;81;20979;-53
2022/07/05 05:11:34;;;;;;;2.37;2.10;;;;;;;29.44;48.73;101594.30;1701364;84;21479;-50
2022/07/05 05:14:01;;;;;;;2.35;2.10;;;;;;;29.61;48.63;101595.02;1735620;81;21038;-49
2022/07/05 05:16:28;;;;;;;2.27;1.70;;;;;;;29.83;48.17;101593.50;1733885;81;21550;-50
2022/07/05 05:18:56;;;;;;;2.27;1.47;;;;;;;30.09;47.89;101592.52;1732434;81;21022;-53
2022/07/05 05:21:23;;;;;;;3.58;1.95;;;;;;;30.39;47.57;101600.01;1735630;82;21014;-51
2022/07/05 05:23:49;;;;;;;1.85;1.72;;;;;;;30.73;46.73;101602.27;1701250;84;21032;-51
2022/07/05 05:26:17;;;;;;;2.17;1.42;;;;;;;31.06;45.67;101600.47;1700427;84;21026;-49
2022/07/05 05:28:44;;;;;;;2.42;1.52;;;;;;;31.43;44.95;101599.22;1698164;84;21018;-51
2022/07/05 05:31:11;;;;;;;2.90;1.60;;;;;;;31.76;44.31;101596.77;1698314;84;21491;-50
2022/07/05 05:33:37;;;;;;;2.27;1.80;;;;;;;32.04;43.53;101599.86;1698185;84;21049;-53
2022/07/05 05:36:05;;;;;;;1.70;1.42;;;;;;;32.23;43.27;101598.03;1698408;84;21042;-51
2022/07/05 05:38:32;;;;;;;2.27;1.90;;;;;;;32.33;43.04;101597.45;1699171;84;21002;-51
2022/07/05 05:40:59;;;;;;;3.20;1.65;;;;;;;32.36;42.94;101597.13;1733285;81;21039;-52
2022/07/05 05:43:26;;;;;;;3.55;1.75;;;;;;;32.35;43.13;101590.92;1751632;80;21546;-51
2022/07/05 05:45:53;;;;;;;4.53;2.15;;;;;;;32.35;43.03;101591.41;1753532;80;20942;-51
2022/07/05 05:48:20;;;;;;;3.47;1.85;;;;;;;32.31;42.71;101584.64;1752764;80;21495;-50
2022/07/05 05:50:47;;;;;;;1.77;1.67;;;;;;;32.25;42.66;101579.37;1751887;80;21010;-51
2022/07/05 05:53:14;;;;;;;3.15;1.70;;;;;;;32.17;42.97;101586.52;1745893;80;21030;-50
2022/07/05 05:55:41;;;;;;;2.72;1.60;;;;;;;32.08;43.30;101589.13;1701028;83;21036;-50
2022/07/05 05:58:21;;;;;;;1.52;1.42;;;;;;;31.99;43.82;101581.95;1713760;83;21053;-53
2022/07/05 06:00:49;;;;;;;1.70;1.60;;;;;;;31.91;44.08;101577.79;1711626;83;21113;-51
2022/07/05 06:03:17;;;;;;;5.40;1.72;;;;;;;31.86;44.17;101581.42;1704325;83;21053;-53
2022/07/05 06:05:44;;;;;;;2.50;1.70;;;;;;;31.84;44.25;101591.48;1720693;83;21010;-56
2022/07/05 06:08:11;;;;;;;3.83;1.62;;;;;;;31.86;44.47;101589.49;1712487;83;21037;-52
2022/07/05 06:10:38;;;;;;;2.65;1.62;;;;;;;31.91;44.56;101594.44;1700703;83;21457;-54
2022/07/05 06:13:09;;;;;;;4.45;2.00;;;;;;;31.98;44.49;101595.57;1695961;83;21035;-49
2022/07/05 06:15:36;;;;;;;;;;;;;;;32.07;44.51;101600.88;1643235;85;21592;-49
2022/07/05 06:18:04;;;;;;;2.02;1.52;;;;;;;32.18;44.56;101597.62;1637865;85;20154;-50
2022/07/05 06:20:33;;;;;;;4.65;1.60;;;;;;;32.29;44.42;101601.45;1690464;83;21578;-50
2022/07/05 06:23:01;;;;;;;2.35;1.85;;;;;;;32.48;44.24;101600.00;1651460;86;21003;-51
2022/07/05 06:25:28;;;;;;;1.95;1.65;;;;;;;32.73;43.80;101608.62;1651776;86;21521;-51
2022/07/05 06:28:02;;;;;;;3.50;1.70;;;;;;;33.03;43.34;101606.03;1651960;86;21498;-49
2022/07/05 06:30:30;;;;;;;3.02;1.62;;;;;;;33.36;42.73;101604.75;1626253;88;21086;-51
2022/07/05 06:35:27;;;;;;;3.33;1.80;;;;;;;33.87;42.05;101597.58;1570220;90;21586;-47
2022/07/05 06:37:57;;;;;;;1.65;1.45;;;;;;;33.98;42.04;101599.98;1580921;90;21685;-50
2022/07/05 06:40:27;;;;;;;1.70;1.55;;;;;;;34.01;42.00;101594.27;1580688;90;21060;-50
2022/07/05 06:42:57;;;;;;;1.87;1.70;;;;;;;33.97;42.05;101598.27;1544361;90;21113;-49
2022/07/05 06:45:26;;;;;;;3.67;1.62;;;;;;;33.89;42.20;101600.95;1602517;88;21568;-54
2022/07/05 06:47:59;;;;;;;2.25;1.52;;;;;;;33.79;42.16;101602.94;1601560;88;21687;-51
2022/07/05 06:50:27;;;;;;;2.65;1.50;;;;;;;33.68;42.35;101597.33;1601315;88;21120;-50
2022/07/05 06:52:54;;;;;;;1.60;1.50;;;;;;;33.56;42.62;101595.44;1601074;86;21541;-53
2022/07/05 06:55:21;;;;;;;3.95;1.95;;;;;;;33.46;42.82;101591.98;1600664;89;21027;-50
2022/07/05 06:57:48;;;;;;;3.70;1.60;;;;;;;33.38;43.21;101594.64;1600467;88;21086;-50
2022/07/05 07:00:16;;;;;;;3.08;1.80;;;;;;;33.29;43.46;101598.28;1601004;88;21108;-49
2022/07/05 07:02:42;;;;;;;2.27;1.30;;;;;;;33.22;43.77;101602.61;1601634;88;21082;-53
2022/07/05 07:05:09;;;;;;;1.60;1.50;;;;;;;33.18;44.13;101603.94;1601954;88;21649;-51
2022/07/05 07:10:22;;;;;;;1.98;1.60;;;;;;;33.17;44.35;101607.66;1601843;88;21070;-51
2022/07/05 07:12:50;;;;;;;1.72;1.62;;;;;;;33.18;44.33;101602.59;1603057;87;21630;-52
2022/07/05 07:15:16;;;;;;;1.65;1.52;;;;;;;33.19;44.26;101606.99;1584890;89;21046;-50
2022/07/05 07:17:43;;;;;;;2.30;1.47;;;;;;;33.20;44.47;101605.97;1559467;90;21080;-51
2022/07/05 07:20:11;;;;;;;1.82;1.65;;;;;;;33.21;44.59;101607.68;1604254;87;21556;-52
2022/07/05 07:22:38;;;;;;;1.85;1.42;;;;;;;33.22;44.82;101608.01;1604723;87;21074;-51
2022/07/05 07:25:08;;;;;;;5.28;1.65;;;;;;;33.24;45.04;101603.30;1584910;89;21106;-55
2022/07/05 07:27:52;;;;;;;2.65;1.40;;;;;;;33.30;45.04;101602.69;1567997;90;21092;-52
2022/07/05 07:30:22;;;;;;;4.25;1.50;;;;;;;33.40;44.93;101598.02;1604434;87;21123;-51
2022/07/05 07:32:50;;;;;;;2.58;1.60;;;;;;;33.55;44.77;101599.13;1613908;85;21509;-51
2022/07/05 07:35:17;;;;;;;1.57;1.45;;;;;;;33.71;44.50;101587.57;1744627;80;21011;-50
2022/07/05 07:37:43;;;;;;;4.03;1.70;;;;;;;33.83;44.24;101589.45;1708738;83;21026;-51
2022/07/05 07:40:11;;;;;;;2.15;1.52;;;;;;;33.89;44.06;101596.41;1706525;83;21042;-51
2022/07/05 07:42:38;;;;;;;1.87;1.70;;;;;;;33.92;43.81;101597.94;1704745;83;21141;-52
2022/07/05 07:45:07;;;;;;;2.10;1.70;;;;;;;33.90;43.69;101599.43;1698090;84;21590;-50
2022/07/05 07:47:35;;;;;;;1.70;1.60;;;;;;;33.89;43.45;101600.95;1698558;84;21050;-50
2022/07/05 07:50:03;;;;;;;2.12;1.92;;;;;;;33.83;43.43;101598.91;1697896;84;21526;-50
2022/07/05 07:52:33;;;;;;;1.87;1.60;;;;;;;33.74;43.46;101601.25;1699512;84;21014;-49
2022/07/05 07:55:01;;;;;;;3.00;1.70;;;;;;;33.64;43.75;101606.27;1698365;84;21073;-49
2022/07/05 07:57:29;;;;;;;2.22;1.50;;;;;;;33.57;44.00;101602.51;1699299;84;21076;-52
2022/07/05 07:59:56;;;;;;;2.02;1.85;;;;;;;33.52;44.25;101602.16;1704364;84;21551;-49
2022/07/05 08:02:23;;;;;;;3.75;2.10;;;;;;;33.48;44.49;101606.16;1698021;84;21010;-51
2022/07/05 08:04:50;;;;;;;1.75;1.65;;;;;;;33.46;44.50;101611.36;1698466;84;21030;-51
2022/07/05 08:07:18;;;;;;;2.30;1.70;;;;;;;33.41;44.63;101607.80;1697835;84;21034;-52
2022/07/05 08:09:45;;;;;;;1.85;1.72;;;;;;;33.38;44.73;101605.44;1700392;82;21057;-49
2022/07/05 08:12:13;;;;;;;1.90;1.77;;;;;;;33.35;44.83;101611.13;1699716;84;21495;-51
2022/07/05 08:14:40;;;;;;;1.65;1.55;;;;;;;33.33;44.91;101607.75;1697960;84;21518;-51
2022/07/05 08:17:08;;;;;;;2.77;1.95;;;;;;;33.31;44.92;101607.06;1732511;81;21074;-51
2022/07/05 08:22:22;;;;;;;5.80;1.90;;;;;;;33.31;44.50;101615.66;1733260;81;21023;-50
2022/07/05 08:24:48;;;;;;;3.80;1.80;;;;;;;33.29;43.84;101612.27;1733542;81;21007;-51
2022/07/05 08:27:15;;;;;;;4.75;1.70;;;;;;;33.25;43.72;101614.45;1730438;81;21027;-49
2022/07/05 08:29:43;;;;;;;1.60;1.50;;;;;;;33.25;43.98;101615.80;1740122;81;21003;-52
2022/07/05 08:32:10;;;;;;;1.98;1.85;;;;;;;33.24;43.91;101619.48;1735304;81;21102;-50
2022/07/05 08:34:37;;;;;;;2.20;2.00;;;;;;;33.23;44.02;101623.20;1735628;81;21007;-50
2022/07/05 08:37:04;;;;;;;2.72;2.12;;;;;;;33.21;44.10;101621.17;1736578;81;21484;-51
2022/07/05 08:39:31;;;;;;;2.45;1.67;;;;;;;33.20;44.37;101622.16;1700498;84;21057;-52
2022/07/05 08:41:59;;;;;;;3.15;2.00;;;;;;;33.22;44.16;101624.19;1690093;84;21010;-51
2022/07/05 08:44:28;;;;;;;1.75;1.55;;;;;;;33.23;44.00;101613.77;1705003;83;21508;-49
2022/07/05 08:46:57;;;;;;;6.60;2.00;;;;;;;33.26;43.90;101620.70;1744798;81;20990;-49
2022/07/05 08:49:27;;;;;;;3.05;2.55;;;;;;;33.28;43.84;101619.54;1740035;82;21002;-52
2022/07/05 08:51:55;;;;;;;;;;;;;;;33.30;43.83;101618.88;1711180;83;20991;-52
2022/07/05 08:54:23;;;;;;;2.33;2.10;;;;;;;33.34;43.53;101622.95;1691462;83;20102;-52
2022/07/05 08:56:51;;;;;;;2.20;1.98;;;;;;;33.35;43.14;101619.23;1698040;82;21024;-50
2022/07/05 08:59:18;;;;;;;1.80;1.70;;;;;;;33.36;43.02;101623.63;1692145;82;21083;-52
2022/07/05 09:01:47;;;;;;;3.83;1.60;;;;;;;33.36;42.49;101617.38;1700631;82;21070;-50
2022/07/05 09:04:14;;;;;;;2.80;2.10;;;;;;;33.34;42.42;101612.65;1696908;82;21551;-53
2022/07/05 09:06:41;;;;;;;1.92;1.60;;;;;;;33.30;42.79;101610.78;1651181;84;21041;-52
2022/07/05 09:09:08;;;;;;;2.33;1.60;;;;;;;33.27;42.59;101616.48;1700892;82;21038;-51
2022/07/05 09:11:37;;;;;;;2.00;1.90;;;;;;;33.23;42.30;101615.11;1699731;82;21043;-54
2022/07/05 09:14:07;;;;;;;2.85;1.90;;;;;;;33.21;42.43;101615.77;1698207;82;20967;-51
2022/07/05 09:16:33;;;;;;;1.82;1.67;;;;;;;33.21;42.68;101611.73;1698495;82;21074;-51
2022/07/05 09:19:07;;;;;;;1.98;1.75;;;;;;;33.21;42.85;101613.08;1693408;82;21041;-50
2022/07/05 09:21:34;;;;;;;3.08;1.98;;;;;;;33.22;42.40;101613.40;1698376;82;21559;-49
2022/07/05 09:24:11;;;;;;;1.80;1.70;;;;;;;33.23;42.61;101612.41;1698991;82;21059;-52
2022/07/05 09:29:18;;;;;;;2.50;1.87;;;;;;;33.21;43.03;101606.33;1635985;87;21137;-53
2022/07/05 09:31:51;;;;;;;3.15;2.02;;;;;;;33.23;42.97;101612.41;1590181;90;21112;-55
2022/07/05 09:34:20;;;;;;;2.00;1.90;;;;;;;33.23;43.05;101612.41;1590499;90;21088;-49
2022/07/05 09:37:01;;;;;;;3.58;2.00;;;;;;;33.22;42.82;101612.58;1585750;90;21572;-50
2022/07/05 09:39:37;;;;;;;2.25;2.00;;;;;;;33.20;42.82;101614.59;1592406;89;21024;-51
2022/07/05 09:42:22;;;;;;;2.37;1.70;;;;;;;33.20;43.26;101614.59;1582297;91;21156;-50
2022/07/05 09:44:48;;;;;;;2.22;2.02;;;;;;;33.18;43.31;101610.68;1527876;93;21089;-49
2022/07/05 09:47:20;;;;;;;2.75;1.87;;;;;;;33.15;43.02;101611.02;1538570;93;21034;-51
2022/07/05 09:49:49;;;;;;;2.92;1.77;;;;;;;33.14;43.28;101610.66;1537723;93;21139;-49
2022/07/05 09:52:30;;;;;;;2.30;1.82;;;;;;;33.14;43.22;101603.91;1536231;93;21037;-53
2022/07/05 09:55:09;;;;;;;2.05;1.87;;;;;;;33.15;43.52;101607.46;1492741;95;21136;-51
2022/07/05 09:57:41;;;;;;;1.75;1.65;;;;;;;33.15;43.62;101607.46;1497754;95;21186;-53
2022/07/05 10:00:17;;;;;;;3.62;1.82;;;;;;;33.15;43.76;101606.12;1496982;95;21095;-52
2022/07/05 10:02:45;;;;;;;1.98;1.80;;;;;;;33.15;44.06;101615.06;1508051;94;21106;-51
2022/07/05 10:05:17;;;;;;;2.10;1.70;;;;;;;33.18;44.16;101617.42;1498858;95;21594;-50
2022/07/05 10:07:47;;;;;;;2.85;2.12;;;;;;;33.24;44.21;101613.27;1512946;94;21560;-50
2022/07/05 10:10:19;;;;;;;2.40;1.85;;;;;;;33.27;44.13;101612.94;1499541;95;21124;-49
2022/07/05 10:12:50;;;;;;;3.60;2.17;;;;;;;33.30;44.03;101613.48;1463872;97;21120;-50
2022/07/05 10:15:21;;;;;;;;;;;;;;;33.35;44.16;101616.53;1390737;102;21188;-53
2022/07/05 10:18:08;;;;;;;2.65;1.80;;;;;;;33.39;44.14;101606.25;1402524;101;20471;-55
2022/07/05 10:20:43;;;;;;;1.67;1.57;;;;;;;33.41;44.27;101615.89;1372094;104;21170;-49
2022/07/05 10:23:17;;;;;;;1.90;1.72;;;;;;;33.44;44.36;101615.58;1402380;102;21196;-53
2022/07/05 10:25:49;;;;;;;2.55;1.95;;;;;;;33.48;44.23;101614.75;1378799;101;21258;-49
2022/07/05 10:28:17;;;;;;;3.12;1.87;;;;;;;33.49;44.27;101609.22;1435427;97;21137;-49
2022/07/05 10:30:46;;;;;;;1.98;1.87;;;;;;;33.50;44.01;101610.92;1476110;96;21061;-52
2022/07/05 10:33:14;;;;;;;1.70;1.60;;;;;;;33.52;44.02;101615.66;1471311;95;21559;-53
2022/07/05 10:35:45;;;;;;;3.17;1.80;;;;;;;33.54;43.79;101608.24;1507416;95;21587;-50
2022/07/05 10:38:12;;;;;;;2.10;1.90;;;;;;;33.56;43.17;101611.62;1533719;93;21080;-49
2022/07/05 10:40:41;;;;;;;2.90;1.62;;;;;;;33.56;42.53;101604.88;1532005;93;21089;-51
2022/07/05 10:43:10;;;;;;;4.12;1.92;;;;;;;33.57;42.69;101609.25;1531727;91;21115;-53
2022/07/05 10:45:39;;;;;;;4.80;1.95;;;;;;;33.61;42.67;101604.41;1528420;93;21112;-53
2022/07/05 10:48:18;;;;;;;2.05;1.80;;;;;;;33.64;42.19;101601.36;1546764;91;21104;-49
2022/07/05 10:50:52;;;;;;;2.60;2.37;;;;;;;33.68;42.10;101603.23;1528670;93;21097;-49
2022/07/05 10:53:39;;;;;;;2.87;2.20;;;;;;;33.69;41.95;101596.84;1567308;91;21057;-51
2022/07/05 10:56:14;;;;;;;4.20;2.08;;;;;;;33.70;41.52;101599.36;1528995;93;21126;-49
2022/07/05 10:58:45;;;;;;;4.33;2.60;;;;;;;33.69;41.79;101602.23;1563638;91;21132;-50
2022/07/05 11:01:28;;;;;;;2.30;2.10;;;;;;;33.64;42.28;101596.82;1529421;93;21145;-49
2022/07/05 11:04:05;;;;;;;4.97;2.02;;;;;;;33.61;42.30;101592.25;1528964;93;21104;-50
2022/07/05 11:06:42;;;;;;;3.10;2.42;;;;;;;33.60;42.08;101599.50;1569289;91;21097;-55
2022/07/05 11:09:16;;;;;;;2.22;2.02;;;;;;;33.62;42.26;101600.67;1538443;91;21141;-50
2022/07/05 11:11:46;;;;;;;2.02;1.87;;;;;;;33.64;42.33;101597.31;1548995;89;21584;-51
2022/07/05 11:14:29;;;;;;;2.58;2.30;;;;;;;33.67;42.26;101597.50;1566018;90;21026;-52
2022/07/05 11:17:19;;;;;;;3.40;1.98;;;;;;;33.67;42.16;101602.90;1598039;89;21074;-53
2022/07/05 11:20:08;;;;;;;2.62;2.40;;;;;;;33.67;41.50;101598.85;1636028;86;21070;-51
2022/07/05 11:22:41;;;;;;;3.35;2.40;;;;;;;33.64;40.85;101588.72;1666951;85;21048;-52
2022/07/05 11:25:10;;;;;;;2.60;2.00;;;;;;;33.64;40.30;101596.82;1704884;83;20973;-51
2022/07/05 11:28:00;;;;;;;2.10;1.90;;;;;;;33.65;40.25;101598.49;1706152;83;21037;-53
2022/07/05 11:30:27;;;;;;;2.22;1.90;;;;;;;33.69;40.25;101596.84;1701096;83;21013;-52
2022/07/05 11:32:54;;;;;;;2.22;1.92;;;;;;;33.71;40.90;101600.22;1700896;83;21002;-50
2022/07/05 11:35:22;;;;;;;2.15;1.95;;;;;;;33.70;40.31;101595.81;1707383;83;21017;-52
2022/07/05 11:38:09;;;;;;;3.25;2.33;;;;;;;33.68;40.68;101588.38;1702573;83;21071;-52
2022/07/05 11:40:40;;;;;;;2.62;2.33;;;;;;;33.65;40.48;101586.88;1667104;86;21090;-50
2022/07/05 11:43:08;;;;;;;4.58;2.00;;;;;;;33.61;40.27;101594.43;1666806;85;21073;-49
2022/07/05 11:45:38;;;;;;;2.47;1.95;;;;;;;33.60;40.17;101586.01;1666785;85;21569;-54
2022/07/05 11:48:05;;;;;;;2.90;2.10;;;;;;;33.59;40.28;101588.88;1667079;85;21070;-49